IGO1127 VOMM-VRMM
Flight info
| Callsign | IGO1127 |
|---|---|
| Flight time | 1h 50m |
| Altitude | 36000 |
| Route | SAGOR2A SAGOR DCT TCN/N0401F240 W147 TVM R457 PATLO PATLO1A |
| Aircraft | A20N/M-SDE2E3FGHIRWXY/LB1 |
Departure
| Time | 2026-04-23 14:27 |
|---|---|
| Airport | Chennai International Airport (VOMM) |
Arrival
| Time | 2026-04-23 16:18 |
|---|---|
| Airport | Velana International Airport (VRMM) |
| Time | Latitude | Longitude | Altitude | Speed | Heading |
|---|---|---|---|---|---|
| 2026-04-23 13:42 | 12.98316 | 80.16244 | 55 ft | 0 kts | 160° |
| 2026-04-23 14:18 | 12.98331 | 80.16238 | 51 ft | 3 kts | 160° |
| 2026-04-23 14:18 | 12.98347 | 80.16232 | 53 ft | 2 kts | 160° |
| 2026-04-23 14:19 | 12.98366 | 80.16227 | 48 ft | 3 kts | 180° |
| 2026-04-23 14:19 | 12.98385 | 80.16230 | 50 ft | 3 kts | 212° |
| 2026-04-23 14:19 | 12.98399 | 80.16243 | 48 ft | 3 kts | 243° |
| 2026-04-23 14:19 | 12.98402 | 80.16250 | 48 ft | 1 kts | 250° |
| 2026-04-23 14:22 | 12.98400 | 80.16245 | 51 ft | 2 kts | 250° |
| 2026-04-23 14:23 | 12.98392 | 80.16222 | 51 ft | 5 kts | 250° |
| 2026-04-23 14:23 | 12.98378 | 80.16181 | 53 ft | 7 kts | 250° |
| 2026-04-23 14:23 | 12.98357 | 80.16124 | 51 ft | 10 kts | 250° |
| 2026-04-23 14:23 | 12.98331 | 80.16053 | 55 ft | 12 kts | 249° |
| 2026-04-23 14:24 | 12.98298 | 80.15969 | 51 ft | 14 kts | 248° |
| 2026-04-23 14:24 | 12.98297 | 80.15883 | 55 ft | 13 kts | 285° |
| 2026-04-23 14:24 | 12.98324 | 80.15786 | 55 ft | 15 kts | 287° |
| 2026-04-23 14:24 | 12.98355 | 80.15676 | 55 ft | 17 kts | 285° |
| 2026-04-23 14:25 | 12.98380 | 80.15583 | 55 ft | 11 kts | 285° |
| 2026-04-23 14:25 | 12.98403 | 80.15500 | 51 ft | 12 kts | 288° |
| 2026-04-23 14:25 | 12.98444 | 80.15454 | 54 ft | 8 kts | 344° |
| 2026-04-23 14:25 | 12.98484 | 80.15480 | 55 ft | 7 kts | 65° |
| 2026-04-23 14:26 | 12.98488 | 80.15492 | 53 ft | 0 kts | 69° |
| 2026-04-23 14:26 | 12.98505 | 80.15535 | 52 ft | 26 kts | 68° |
| 2026-04-23 14:27 | 12.98659 | 80.15944 | 53 ft | 95 kts | 68° |
| 2026-04-23 14:27 | 12.98964 | 80.16762 | 49 ft | 148 kts | 69° |
| 2026-04-23 14:27 | 12.99369 | 80.17861 | 300 ft | 168 kts | 74° |
| 2026-04-23 14:27 | 12.99738 | 80.18989 | 886 ft | 169 kts | 75° |
| 2026-04-23 14:28 | 13.00141 | 80.20138 | 1475 ft | 170 kts | 72° |
| 2026-04-23 14:28 | 13.00591 | 80.21274 | 1995 ft | 178 kts | 71° |
| 2026-04-23 14:28 | 13.01077 | 80.22500 | 2298 ft | 198 kts | 70° |
| 2026-04-23 14:28 | 13.01612 | 80.23867 | 2657 ft | 215 kts | 71° |
| 2026-04-23 14:29 | 13.02188 | 80.25359 | 2968 ft | 236 kts | 71° |
| 2026-04-23 14:29 | 13.02814 | 80.26999 | 3322 ft | 256 kts | 71° |
| 2026-04-23 14:29 | 13.03484 | 80.28753 | 3836 ft | 268 kts | 70° |
| 2026-04-23 14:29 | 13.03892 | 80.30594 | 4662 ft | 264 kts | 92° |
| 2026-04-23 14:30 | 13.03451 | 80.32407 | 5390 ft | 267 kts | 118° |
| 2026-04-23 14:30 | 13.02213 | 80.33832 | 6097 ft | 274 kts | 144° |
| 2026-04-23 14:30 | 13.00438 | 80.34545 | 6736 ft | 284 kts | 171° |
| 2026-04-23 14:30 | 12.98438 | 80.34387 | 7406 ft | 293 kts | 193° |
| 2026-04-23 14:31 | 12.96486 | 80.33753 | 8093 ft | 298 kts | 194° |
| 2026-04-23 14:31 | 12.94437 | 80.33391 | 8760 ft | 300 kts | 180° |
| 2026-04-23 14:31 | 12.92349 | 80.33536 | 9452 ft | 302 kts | 167° |
| 2026-04-23 14:31 | 12.90305 | 80.34055 | 10091 ft | 306 kts | 160° |
| 2026-04-23 14:32 | 12.88219 | 80.34806 | 10314 ft | 327 kts | 156° |
| 2026-04-23 14:32 | 12.86044 | 80.35700 | 10529 ft | 346 kts | 155° |
| 2026-04-23 14:32 | 12.83710 | 80.36443 | 11071 ft | 355 kts | 166° |
| 2026-04-23 14:32 | 12.81272 | 80.36760 | 11757 ft | 360 kts | 176° |
| 2026-04-23 14:33 | 12.78755 | 80.36719 | 12429 ft | 364 kts | 180° |
| 2026-04-23 14:33 | 12.76214 | 80.36646 | 13099 ft | 367 kts | 180° |
| 2026-04-23 14:33 | 12.73652 | 80.36577 | 13751 ft | 370 kts | 180° |
| 2026-04-23 14:33 | 12.71062 | 80.36508 | 14329 ft | 373 kts | 180° |
| 2026-04-23 14:34 | 12.68440 | 80.36439 | 14886 ft | 377 kts | 180° |
| 2026-04-23 14:34 | 12.65803 | 80.36369 | 15438 ft | 380 kts | 180° |
| 2026-04-23 14:34 | 12.63174 | 80.36299 | 15967 ft | 384 kts | 180° |
| 2026-04-23 14:34 | 12.60485 | 80.36217 | 16515 ft | 387 kts | 181° |
| 2026-04-23 14:35 | 12.57784 | 80.36113 | 17040 ft | 390 kts | 182° |
| 2026-04-23 14:35 | 12.55069 | 80.36002 | 17580 ft | 392 kts | 182° |
| 2026-04-23 14:35 | 12.52332 | 80.35891 | 18073 ft | 396 kts | 182° |
| 2026-04-23 14:35 | 12.49566 | 80.35782 | 18549 ft | 397 kts | 182° |
| 2026-04-23 14:36 | 12.46799 | 80.35673 | 19024 ft | 399 kts | 182° |
| 2026-04-23 14:36 | 12.44021 | 80.35565 | 19499 ft | 400 kts | 182° |
| 2026-04-23 14:36 | 12.41228 | 80.35457 | 19954 ft | 403 kts | 182° |
| 2026-04-23 14:36 | 12.38423 | 80.35349 | 20425 ft | 404 kts | 183° |
| 2026-04-23 14:37 | 12.35604 | 80.35240 | 20884 ft | 406 kts | 183° |
| 2026-04-23 14:37 | 12.32772 | 80.35130 | 21347 ft | 408 kts | 183° |
| 2026-04-23 14:37 | 12.29931 | 80.35020 | 21801 ft | 410 kts | 183° |
| 2026-04-23 14:37 | 12.27110 | 80.34911 | 22249 ft | 412 kts | 183° |
| 2026-04-23 14:38 | 12.24224 | 80.34800 | 22701 ft | 414 kts | 183° |
| 2026-04-23 14:38 | 12.21330 | 80.34687 | 23150 ft | 416 kts | 184° |
| 2026-04-23 14:38 | 12.18426 | 80.34575 | 23534 ft | 419 kts | 184° |
| 2026-04-23 14:38 | 12.15516 | 80.34461 | 23925 ft | 420 kts | 184° |
| 2026-04-23 14:39 | 12.12584 | 80.34348 | 24307 ft | 421 kts | 184° |
| 2026-04-23 14:39 | 12.09642 | 80.34233 | 24679 ft | 423 kts | 184° |
| 2026-04-23 14:39 | 12.06732 | 80.34120 | 25028 ft | 425 kts | 184° |
| 2026-04-23 14:39 | 12.03793 | 80.33846 | 25381 ft | 424 kts | 193° |
| 2026-04-23 14:40 | 12.01001 | 80.32918 | 25727 ft | 423 kts | 206° |
| 2026-04-23 14:40 | 11.98500 | 80.31346 | 26064 ft | 422 kts | 220° |
| 2026-04-23 14:40 | 11.96332 | 80.29313 | 26410 ft | 423 kts | 225° |
| 2026-04-23 14:40 | 11.94239 | 80.27200 | 26772 ft | 423 kts | 225° |
| 2026-04-23 14:41 | 11.92138 | 80.25071 | 27097 ft | 425 kts | 225° |
| 2026-04-23 14:41 | 11.90020 | 80.22950 | 27432 ft | 426 kts | 225° |
| 2026-04-23 14:41 | 11.87913 | 80.20863 | 27761 ft | 427 kts | 224° |
| 2026-04-23 14:41 | 11.85772 | 80.18755 | 28078 ft | 428 kts | 224° |
| 2026-04-23 14:42 | 11.83612 | 80.16635 | 28395 ft | 429 kts | 224° |
| 2026-04-23 14:42 | 11.81459 | 80.14525 | 28699 ft | 431 kts | 224° |
| 2026-04-23 14:42 | 11.79310 | 80.12419 | 28998 ft | 432 kts | 224° |
| 2026-04-23 14:42 | 11.77135 | 80.10289 | 29291 ft | 433 kts | 224° |
| 2026-04-23 14:43 | 11.74959 | 80.08158 | 29583 ft | 434 kts | 224° |
| 2026-04-23 14:43 | 11.72773 | 80.06017 | 29861 ft | 435 kts | 224° |
| 2026-04-23 14:43 | 11.70585 | 80.03875 | 30122 ft | 436 kts | 224° |
| 2026-04-23 14:43 | 11.68393 | 80.01729 | 30370 ft | 437 kts | 224° |
| 2026-04-23 14:44 | 11.66193 | 79.99576 | 30617 ft | 439 kts | 224° |
| 2026-04-23 14:44 | 11.63988 | 79.97417 | 30864 ft | 440 kts | 224° |
| 2026-04-23 14:44 | 11.61778 | 79.95255 | 31176 ft | 439 kts | 223° |
| 2026-04-23 14:44 | 11.59581 | 79.93105 | 31513 ft | 438 kts | 223° |
| 2026-04-23 14:45 | 11.57389 | 79.90961 | 31863 ft | 436 kts | 223° |
| 2026-04-23 14:45 | 11.55205 | 79.88825 | 32184 ft | 434 kts | 223° |
| 2026-04-23 14:45 | 11.53055 | 79.86722 | 32490 ft | 433 kts | 223° |
| 2026-04-23 14:45 | 11.50880 | 79.84596 | 32796 ft | 432 kts | 222° |
| 2026-04-23 14:46 | 11.48713 | 79.82480 | 33081 ft | 431 kts | 222° |
| 2026-04-23 14:46 | 11.46551 | 79.80368 | 33374 ft | 429 kts | 222° |
| 2026-04-23 14:46 | 11.45123 | 79.78973 | 33545 ft | 429 kts | 222° |
| 2026-04-23 14:46 | 11.42245 | 79.76164 | 33892 ft | 427 kts | 222° |
| 2026-04-23 14:47 | 11.40102 | 79.74072 | 34114 ft | 426 kts | 222° |
| 2026-04-23 14:47 | 11.37964 | 79.71986 | 34326 ft | 425 kts | 222° |
| 2026-04-23 14:47 | 11.35830 | 79.69905 | 34527 ft | 424 kts | 222° |
| 2026-04-23 14:47 | 11.33700 | 79.67829 | 34730 ft | 423 kts | 222° |
| 2026-04-23 14:48 | 11.31590 | 79.65772 | 34933 ft | 422 kts | 222° |
| 2026-04-23 14:48 | 11.29464 | 79.63699 | 35134 ft | 422 kts | 222° |
| 2026-04-23 14:48 | 11.27346 | 79.61636 | 35330 ft | 421 kts | 222° |
| 2026-04-23 14:48 | 11.25232 | 79.59577 | 35534 ft | 420 kts | 222° |
| 2026-04-23 14:49 | 11.23117 | 79.57516 | 35723 ft | 420 kts | 222° |
| 2026-04-23 14:49 | 11.21008 | 79.55464 | 35794 ft | 419 kts | 222° |
| 2026-04-23 14:49 | 11.16804 | 79.51372 | 35804 ft | 418 kts | 222° |
| 2026-04-23 14:50 | 11.12600 | 79.47282 | 35805 ft | 418 kts | 222° |
| 2026-04-23 14:50 | 11.08419 | 79.43216 | 35803 ft | 418 kts | 222° |
| 2026-04-23 14:51 | 11.04203 | 79.39117 | 35802 ft | 418 kts | 222° |
| 2026-04-23 14:51 | 10.99990 | 79.35024 | 35800 ft | 419 kts | 222° |
| 2026-04-23 14:52 | 10.95771 | 79.30925 | 35801 ft | 419 kts | 222° |
| 2026-04-23 14:52 | 10.91551 | 79.26828 | 35801 ft | 419 kts | 222° |
| 2026-04-23 14:53 | 10.88036 | 79.23416 | 35801 ft | 419 kts | 222° |
| 2026-04-23 14:53 | 10.83811 | 79.19316 | 35801 ft | 419 kts | 222° |
| 2026-04-23 14:54 | 10.79604 | 79.15236 | 35798 ft | 420 kts | 222° |
| 2026-04-23 14:54 | 10.74685 | 79.10468 | 35798 ft | 420 kts | 222° |
| 2026-04-23 14:55 | 10.71160 | 79.07052 | 35801 ft | 420 kts | 221° |
| 2026-04-23 14:55 | 10.66924 | 79.02948 | 35799 ft | 420 kts | 221° |
| 2026-04-23 14:56 | 10.62684 | 78.98843 | 35800 ft | 421 kts | 221° |
| 2026-04-23 14:56 | 10.58441 | 78.94735 | 35801 ft | 421 kts | 221° |
| 2026-04-23 14:57 | 10.54198 | 78.90630 | 35801 ft | 421 kts | 221° |
| 2026-04-23 14:57 | 10.49952 | 78.86523 | 35806 ft | 421 kts | 221° |
| 2026-04-23 14:58 | 10.45729 | 78.82440 | 35807 ft | 421 kts | 221° |
| 2026-04-23 14:58 | 10.41474 | 78.78328 | 35809 ft | 421 kts | 221° |
| 2026-04-23 14:59 | 10.37211 | 78.74210 | 35810 ft | 422 kts | 221° |
| 2026-04-23 14:59 | 10.32981 | 78.70126 | 35808 ft | 422 kts | 221° |
| 2026-04-23 15:00 | 10.28729 | 78.66020 | 35812 ft | 421 kts | 221° |
| 2026-04-23 15:00 | 10.24470 | 78.61911 | 35815 ft | 422 kts | 221° |
| 2026-04-23 15:01 | 10.20214 | 78.57806 | 35814 ft | 421 kts | 221° |
| 2026-04-23 15:01 | 10.15996 | 78.53739 | 35817 ft | 421 kts | 221° |
| 2026-04-23 15:02 | 10.11746 | 78.49644 | 35817 ft | 421 kts | 221° |
| 2026-04-23 15:02 | 10.07493 | 78.45546 | 35815 ft | 421 kts | 221° |
| 2026-04-23 15:03 | 10.03246 | 78.41456 | 35811 ft | 421 kts | 221° |
| 2026-04-23 15:03 | 9.99000 | 78.37368 | 35814 ft | 421 kts | 221° |
| 2026-04-23 15:04 | 9.94751 | 78.33280 | 35828 ft | 420 kts | 221° |
| 2026-04-23 15:04 | 9.90529 | 78.29217 | 35840 ft | 420 kts | 221° |
| 2026-04-23 15:05 | 9.86287 | 78.25139 | 35849 ft | 420 kts | 221° |
| 2026-04-23 15:05 | 9.82029 | 78.21046 | 35851 ft | 420 kts | 221° |
| 2026-04-23 15:06 | 9.77808 | 78.16990 | 35849 ft | 420 kts | 221° |
| 2026-04-23 15:06 | 9.73560 | 78.12910 | 35852 ft | 421 kts | 221° |
| 2026-04-23 15:07 | 9.69313 | 78.08831 | 35849 ft | 421 kts | 221° |
| 2026-04-23 15:07 | 9.65070 | 78.04760 | 35842 ft | 421 kts | 221° |
| 2026-04-23 15:08 | 9.60813 | 78.00675 | 35838 ft | 421 kts | 221° |
| 2026-04-23 15:09 | 9.54426 | 77.94549 | 35833 ft | 421 kts | 221° |
| 2026-04-23 15:09 | 9.50170 | 77.90470 | 35832 ft | 421 kts | 221° |
| 2026-04-23 15:10 | 9.46615 | 77.87063 | 35836 ft | 421 kts | 221° |
| 2026-04-23 15:10 | 9.41657 | 77.82313 | 35832 ft | 422 kts | 221° |
| 2026-04-23 15:11 | 9.37389 | 77.78226 | 35831 ft | 422 kts | 221° |
| 2026-04-23 15:11 | 9.33121 | 77.74141 | 35829 ft | 422 kts | 221° |
| 2026-04-23 15:12 | 9.28857 | 77.70060 | 35829 ft | 422 kts | 221° |
| 2026-04-23 15:12 | 9.24613 | 77.66001 | 35831 ft | 422 kts | 221° |
| 2026-04-23 15:13 | 9.20340 | 77.61915 | 35826 ft | 422 kts | 221° |
| 2026-04-23 15:13 | 9.16073 | 77.57836 | 35829 ft | 422 kts | 221° |
| 2026-04-23 15:14 | 9.11828 | 77.53780 | 35833 ft | 422 kts | 221° |
| 2026-04-23 15:14 | 9.07566 | 77.49708 | 35832 ft | 422 kts | 221° |
| 2026-04-23 15:15 | 9.03290 | 77.45625 | 35837 ft | 422 kts | 221° |
| 2026-04-23 15:15 | 8.99010 | 77.41540 | 35838 ft | 422 kts | 221° |
| 2026-04-23 15:16 | 8.94762 | 77.37486 | 35838 ft | 422 kts | 221° |
| 2026-04-23 15:16 | 8.90482 | 77.33403 | 35842 ft | 423 kts | 221° |
| 2026-04-23 15:17 | 8.86200 | 77.29320 | 35839 ft | 423 kts | 221° |
| 2026-04-23 15:17 | 8.81902 | 77.25224 | 35845 ft | 424 kts | 221° |
| 2026-04-23 15:18 | 8.77628 | 77.21153 | 35855 ft | 424 kts | 221° |
| 2026-04-23 15:18 | 8.73333 | 77.17060 | 35856 ft | 424 kts | 221° |
| 2026-04-23 15:19 | 8.69033 | 77.12966 | 35847 ft | 425 kts | 221° |
| 2026-04-23 15:19 | 8.64733 | 77.08872 | 35845 ft | 425 kts | 221° |
| 2026-04-23 15:20 | 8.61160 | 77.05470 | 35832 ft | 423 kts | 221° |
| 2026-04-23 15:20 | 8.56154 | 77.00707 | 35827 ft | 424 kts | 221° |
| 2026-04-23 15:21 | 8.51884 | 76.96644 | 35828 ft | 424 kts | 221° |
| 2026-04-23 15:21 | 8.47564 | 76.92569 | 35829 ft | 423 kts | 219° |
| 2026-04-23 15:22 | 8.42964 | 76.88849 | 35831 ft | 423 kts | 217° |
| 2026-04-23 15:22 | 8.38344 | 76.85149 | 35833 ft | 424 kts | 217° |
| 2026-04-23 15:23 | 8.33746 | 76.81465 | 35832 ft | 424 kts | 217° |
| 2026-04-23 15:23 | 8.29114 | 76.77759 | 35837 ft | 424 kts | 217° |
| 2026-04-23 15:24 | 8.24487 | 76.74058 | 35841 ft | 425 kts | 217° |
| 2026-04-23 15:24 | 8.19853 | 76.70355 | 35846 ft | 425 kts | 217° |
| 2026-04-23 15:25 | 8.15222 | 76.66653 | 35849 ft | 425 kts | 217° |
| 2026-04-23 15:25 | 8.10582 | 76.62946 | 35849 ft | 425 kts | 217° |
| 2026-04-23 15:26 | 8.05944 | 76.59242 | 35850 ft | 425 kts | 217° |
| 2026-04-23 15:26 | 8.01344 | 76.55568 | 35858 ft | 425 kts | 217° |
| 2026-04-23 15:27 | 7.96704 | 76.51865 | 35855 ft | 425 kts | 217° |
| 2026-04-23 15:27 | 7.92068 | 76.48165 | 35853 ft | 425 kts | 217° |
| 2026-04-23 15:28 | 7.87441 | 76.44474 | 35852 ft | 425 kts | 217° |
| 2026-04-23 15:28 | 7.82798 | 76.40771 | 35851 ft | 424 kts | 217° |
| 2026-04-23 15:29 | 7.78164 | 76.37077 | 35851 ft | 424 kts | 217° |
| 2026-04-23 15:29 | 7.73549 | 76.33398 | 35850 ft | 424 kts | 217° |
| 2026-04-23 15:30 | 7.68932 | 76.29720 | 35849 ft | 424 kts | 217° |
| 2026-04-23 15:30 | 7.64286 | 76.26019 | 35851 ft | 424 kts | 217° |
| 2026-04-23 15:31 | 7.59652 | 76.22328 | 35849 ft | 424 kts | 217° |
| 2026-04-23 15:31 | 7.55026 | 76.18645 | 35849 ft | 424 kts | 217° |
| 2026-04-23 15:32 | 7.50386 | 76.14952 | 35851 ft | 424 kts | 217° |
| 2026-04-23 15:32 | 7.45751 | 76.11265 | 35852 ft | 424 kts | 217° |
| 2026-04-23 15:33 | 7.41141 | 76.07597 | 35851 ft | 424 kts | 217° |
| 2026-04-23 15:33 | 7.36509 | 76.03914 | 35852 ft | 424 kts | 217° |
| 2026-04-23 15:34 | 7.31857 | 76.00215 | 35853 ft | 424 kts | 217° |
| 2026-04-23 15:34 | 7.27227 | 75.96535 | 35850 ft | 424 kts | 217° |
| 2026-04-23 15:35 | 7.22614 | 75.92870 | 35850 ft | 424 kts | 217° |
| 2026-04-23 15:35 | 7.17977 | 75.89187 | 35851 ft | 424 kts | 217° |
| 2026-04-23 15:36 | 7.13341 | 75.85505 | 35853 ft | 424 kts | 217° |
| 2026-04-23 15:36 | 7.08698 | 75.81819 | 35851 ft | 425 kts | 217° |
| 2026-04-23 15:37 | 7.04049 | 75.78129 | 35852 ft | 425 kts | 217° |
| 2026-04-23 15:37 | 7.00195 | 75.75070 | 35852 ft | 425 kts | 217° |
| 2026-04-23 15:38 | 6.94787 | 75.70781 | 35854 ft | 425 kts | 217° |
| 2026-04-23 15:38 | 6.90139 | 75.67094 | 35856 ft | 425 kts | 217° |
| 2026-04-23 15:39 | 6.85484 | 75.63403 | 35857 ft | 425 kts | 217° |
| 2026-04-23 15:39 | 6.81622 | 75.60341 | 35858 ft | 425 kts | 217° |
| 2026-04-23 15:40 | 6.76216 | 75.56057 | 35857 ft | 425 kts | 217° |
| 2026-04-23 15:40 | 6.71563 | 75.52370 | 35856 ft | 425 kts | 217° |
| 2026-04-23 15:41 | 6.66935 | 75.48705 | 35856 ft | 425 kts | 217° |
| 2026-04-23 15:41 | 6.62285 | 75.45022 | 35857 ft | 425 kts | 217° |
| 2026-04-23 15:42 | 6.58415 | 75.41958 | 35858 ft | 425 kts | 217° |
| 2026-04-23 15:42 | 6.53748 | 75.38264 | 35859 ft | 425 kts | 217° |
| 2026-04-23 15:43 | 6.49099 | 75.34585 | 35856 ft | 425 kts | 217° |
| 2026-04-23 15:43 | 6.44473 | 75.30926 | 35856 ft | 425 kts | 217° |
| 2026-04-23 15:44 | 6.39816 | 75.27242 | 35859 ft | 425 kts | 217° |
| 2026-04-23 15:44 | 6.35162 | 75.23561 | 35858 ft | 425 kts | 217° |
| 2026-04-23 15:45 | 6.30534 | 75.19902 | 35859 ft | 425 kts | 217° |
| 2026-04-23 15:45 | 6.25877 | 75.16222 | 35862 ft | 425 kts | 217° |
| 2026-04-23 15:46 | 6.21218 | 75.12540 | 35860 ft | 426 kts | 217° |
| 2026-04-23 15:46 | 6.16562 | 75.08862 | 35862 ft | 426 kts | 217° |
| 2026-04-23 15:47 | 6.11903 | 75.05181 | 35864 ft | 426 kts | 217° |
| 2026-04-23 15:47 | 6.07253 | 75.01509 | 35861 ft | 426 kts | 217° |
| 2026-04-23 15:48 | 6.02619 | 74.97850 | 35861 ft | 426 kts | 217° |
| 2026-04-23 15:48 | 5.97959 | 74.94167 | 35862 ft | 426 kts | 217° |
| 2026-04-23 15:49 | 5.93314 | 74.90469 | 35861 ft | 426 kts | 217° |
| 2026-04-23 15:49 | 5.88668 | 74.86769 | 35864 ft | 426 kts | 217° |
| 2026-04-23 15:50 | 5.84022 | 74.83074 | 35866 ft | 426 kts | 217° |
| 2026-04-23 15:50 | 5.79400 | 74.79399 | 35865 ft | 426 kts | 217° |
| 2026-04-23 15:51 | 5.74742 | 74.75696 | 35864 ft | 426 kts | 217° |
| 2026-04-23 15:51 | 5.70088 | 74.71998 | 35869 ft | 426 kts | 217° |
| 2026-04-23 15:52 | 5.65458 | 74.68319 | 35866 ft | 426 kts | 217° |
| 2026-04-23 15:52 | 5.60810 | 74.64627 | 35866 ft | 426 kts | 217° |
| 2026-04-23 15:53 | 5.56155 | 74.60930 | 35865 ft | 426 kts | 217° |
| 2026-04-23 15:53 | 5.51506 | 74.57239 | 35866 ft | 426 kts | 217° |
| 2026-04-23 15:54 | 5.46850 | 74.53542 | 35866 ft | 426 kts | 217° |
| 2026-04-23 15:54 | 5.42178 | 74.49882 | 35867 ft | 426 kts | 215° |
| 2026-04-23 15:55 | 5.37386 | 74.46388 | 35765 ft | 426 kts | 214° |
| 2026-04-23 15:55 | 5.34983 | 74.44641 | 35525 ft | 426 kts | 214° |
| 2026-04-23 15:55 | 5.32584 | 74.42887 | 35296 ft | 427 kts | 214° |
| 2026-04-23 15:55 | 5.30213 | 74.41147 | 35068 ft | 428 kts | 214° |
| 2026-04-23 15:56 | 5.27811 | 74.39380 | 34838 ft | 429 kts | 214° |
| 2026-04-23 15:56 | 5.25398 | 74.37603 | 34602 ft | 430 kts | 214° |
| 2026-04-23 15:56 | 5.22983 | 74.35825 | 34382 ft | 431 kts | 214° |
| 2026-04-23 15:56 | 5.20560 | 74.34041 | 33959 ft | 434 kts | 214° |
| 2026-04-23 15:57 | 5.18106 | 74.32236 | 33080 ft | 440 kts | 214° |
| 2026-04-23 15:57 | 5.15613 | 74.30403 | 32147 ft | 446 kts | 214° |
| 2026-04-23 15:57 | 5.13108 | 74.28559 | 31327 ft | 448 kts | 214° |
| 2026-04-23 15:57 | 5.10594 | 74.26710 | 30666 ft | 447 kts | 214° |
| 2026-04-23 15:58 | 5.08094 | 74.24869 | 30209 ft | 443 kts | 214° |
| 2026-04-23 15:58 | 5.05605 | 74.23038 | 29537 ft | 443 kts | 214° |
| 2026-04-23 15:58 | 5.03164 | 74.21242 | 29001 ft | 438 kts | 214° |
| 2026-04-23 15:58 | 5.00716 | 74.19441 | 28416 ft | 433 kts | 214° |
| 2026-04-23 15:59 | 4.98295 | 74.17661 | 27849 ft | 429 kts | 215° |
| 2026-04-23 15:59 | 4.95897 | 74.15897 | 27293 ft | 426 kts | 215° |
| 2026-04-23 15:59 | 4.93517 | 74.14147 | 26722 ft | 422 kts | 215° |
| 2026-04-23 15:59 | 4.91148 | 74.12406 | 26112 ft | 421 kts | 215° |
| 2026-04-23 16:00 | 4.88799 | 74.10679 | 25594 ft | 417 kts | 215° |
| 2026-04-23 16:00 | 4.86488 | 74.08982 | 25031 ft | 415 kts | 215° |
| 2026-04-23 16:00 | 4.84163 | 74.07273 | 24508 ft | 413 kts | 215° |
| 2026-04-23 16:00 | 4.81847 | 74.05572 | 23968 ft | 411 kts | 216° |
| 2026-04-23 16:01 | 4.79534 | 74.03873 | 23417 ft | 410 kts | 216° |
| 2026-04-23 16:01 | 4.77241 | 74.02188 | 22790 ft | 408 kts | 216° |
| 2026-04-23 16:01 | 4.74899 | 74.00616 | 22247 ft | 403 kts | 207° |
| 2026-04-23 16:01 | 4.72330 | 73.99410 | 21215 ft | 412 kts | 204° |
| 2026-04-23 16:02 | 4.69669 | 73.98230 | 20026 ft | 426 kts | 203° |
| 2026-04-23 16:02 | 4.66933 | 73.97025 | 19211 ft | 430 kts | 204° |
| 2026-04-23 16:02 | 4.64234 | 73.95831 | 18630 ft | 427 kts | 204° |
| 2026-04-23 16:02 | 4.61525 | 73.94625 | 18011 ft | 425 kts | 204° |
| 2026-04-23 16:03 | 4.58836 | 73.93423 | 17389 ft | 421 kts | 204° |
| 2026-04-23 16:03 | 4.56146 | 73.92219 | 16800 ft | 416 kts | 204° |
| 2026-04-23 16:03 | 4.53554 | 73.91057 | 16207 ft | 411 kts | 204° |
| 2026-04-23 16:03 | 4.50953 | 73.89892 | 15644 ft | 407 kts | 204° |
| 2026-04-23 16:04 | 4.48386 | 73.88742 | 15255 ft | 398 kts | 204° |
| 2026-04-23 16:04 | 4.45884 | 73.87621 | 14729 ft | 393 kts | 204° |
| 2026-04-23 16:04 | 4.43374 | 73.86497 | 14036 ft | 396 kts | 204° |
| 2026-04-23 16:04 | 4.40870 | 73.85375 | 13456 ft | 393 kts | 204° |
| 2026-04-23 16:05 | 4.39187 | 73.84622 | 13069 ft | 390 kts | 204° |
| 2026-04-23 16:05 | 4.35927 | 73.83162 | 12310 ft | 385 kts | 204° |
| 2026-04-23 16:05 | 4.33485 | 73.82069 | 11744 ft | 382 kts | 204° |
| 2026-04-23 16:05 | 4.31066 | 73.80986 | 11178 ft | 379 kts | 203° |
| 2026-04-23 16:06 | 4.28669 | 73.79912 | 10694 ft | 374 kts | 203° |
| 2026-04-23 16:06 | 4.26333 | 73.78866 | 10539 ft | 360 kts | 203° |
| 2026-04-23 16:06 | 4.24092 | 73.77862 | 10403 ft | 346 kts | 203° |
| 2026-04-23 16:06 | 4.21939 | 73.76898 | 10267 ft | 331 kts | 203° |
| 2026-04-23 16:07 | 4.19897 | 73.75983 | 10086 ft | 313 kts | 203° |
| 2026-04-23 16:07 | 4.17937 | 73.75105 | 9631 ft | 306 kts | 203° |
| 2026-04-23 16:07 | 4.16020 | 73.74248 | 9051 ft | 303 kts | 203° |
| 2026-04-23 16:07 | 4.14102 | 73.73390 | 8480 ft | 300 kts | 203° |
| 2026-04-23 16:08 | 4.12220 | 73.72548 | 8166 ft | 288 kts | 203° |
| 2026-04-23 16:08 | 4.10438 | 73.71750 | 8013 ft | 271 kts | 203° |
| 2026-04-23 16:08 | 4.08770 | 73.71003 | 7824 ft | 256 kts | 203° |
| 2026-04-23 16:08 | 4.07157 | 73.70281 | 7427 ft | 252 kts | 203° |
| 2026-04-23 16:09 | 4.05556 | 73.69566 | 6990 ft | 251 kts | 203° |
| 2026-04-23 16:09 | 4.03968 | 73.68856 | 6590 ft | 249 kts | 203° |
| 2026-04-23 16:09 | 4.02390 | 73.68151 | 6169 ft | 247 kts | 203° |
| 2026-04-23 16:09 | 4.00825 | 73.67451 | 5755 ft | 244 kts | 203° |
| 2026-04-23 16:10 | 3.99281 | 73.66761 | 5325 ft | 243 kts | 203° |
| 2026-04-23 16:10 | 3.97738 | 73.66071 | 4957 ft | 242 kts | 203° |
| 2026-04-23 16:10 | 3.96232 | 73.65375 | 4691 ft | 240 kts | 210° |
| 2026-04-23 16:10 | 3.95056 | 73.64212 | 4372 ft | 240 kts | 242° |
| 2026-04-23 16:11 | 3.94637 | 73.62626 | 4166 ft | 233 kts | 267° |
| 2026-04-23 16:11 | 3.94660 | 73.60971 | 4079 ft | 241 kts | 273° |
| 2026-04-23 16:11 | 3.94763 | 73.59327 | 4026 ft | 229 kts | 274° |
| 2026-04-23 16:11 | 3.94841 | 73.57790 | 4024 ft | 213 kts | 272° |
| 2026-04-23 16:12 | 3.94884 | 73.56320 | 4031 ft | 214 kts | 271° |
| 2026-04-23 16:12 | 3.95066 | 73.54854 | 4023 ft | 212 kts | 294° |
| 2026-04-23 16:12 | 3.96010 | 73.53742 | 4032 ft | 213 kts | 330° |
| 2026-04-23 16:12 | 3.97398 | 73.53243 | 3939 ft | 213 kts | 351° |
| 2026-04-23 16:13 | 3.98872 | 73.53116 | 3680 ft | 212 kts | 359° |
| 2026-04-23 16:13 | 4.01718 | 73.53119 | 3153 ft | 198 kts | 0° |
| 2026-04-23 16:13 | 4.03077 | 73.53118 | 2893 ft | 193 kts | 0° |
| 2026-04-23 16:14 | 4.04403 | 73.53117 | 2645 ft | 187 kts | 360° |
| 2026-04-23 16:14 | 4.05689 | 73.53115 | 2407 ft | 183 kts | 359° |
| 2026-04-23 16:14 | 4.06938 | 73.53114 | 2176 ft | 179 kts | 359° |
| 2026-04-23 16:14 | 4.08167 | 73.53113 | 1954 ft | 172 kts | 359° |
| 2026-04-23 16:15 | 4.09329 | 73.53111 | 1731 ft | 161 kts | 359° |
| 2026-04-23 16:15 | 4.10415 | 73.53110 | 1537 ft | 153 kts | 359° |
| 2026-04-23 16:15 | 4.11468 | 73.53109 | 1348 ft | 145 kts | 359° |
| 2026-04-23 16:15 | 4.12460 | 73.53108 | 1165 ft | 143 kts | 358° |
| 2026-04-23 16:16 | 4.13456 | 73.53107 | 979 ft | 143 kts | 359° |
| 2026-04-23 16:16 | 4.14453 | 73.53106 | 808 ft | 144 kts | 359° |
| 2026-04-23 16:16 | 4.15453 | 73.53105 | 639 ft | 144 kts | 359° |
| 2026-04-23 16:16 | 4.16443 | 73.53104 | 457 ft | 143 kts | 359° |
| 2026-04-23 16:17 | 4.17438 | 73.53102 | 267 ft | 143 kts | 359° |
| 2026-04-23 16:17 | 4.18430 | 73.53111 | 122 ft | 142 kts | 359° |
| 2026-04-23 16:17 | 4.19416 | 73.53115 | 17 ft | 134 kts | 354° |
| 2026-04-23 16:17 | 4.20189 | 73.53099 | 14 ft | 83 kts | 0° |
| 2026-04-23 16:18 | 4.20646 | 73.53100 | 17 ft | 54 kts | 359° |
| 2026-04-23 16:18 | 4.20802 | 73.53100 | 18 ft | 16 kts | 1° |
| 2026-04-23 16:18 | 4.20891 | 73.53098 | 18 ft | 11 kts | 345° |
| 2026-04-23 16:18 | 4.20929 | 73.53040 | 18 ft | 9 kts | 279° |
| 2026-04-23 16:19 | 4.20934 | 73.52981 | 17 ft | 10 kts | 267° |
| 2026-04-23 16:19 | 4.20918 | 73.52925 | 16 ft | 0 kts | 226° |
| 2026-04-23 16:20 | 4.20918 | 73.52924 | 16 ft | 0 kts | 235° |
| 2026-04-23 16:20 | 4.20922 | 73.52919 | 16 ft | 1 kts | 300° |
| 2026-04-23 16:20 | 4.20927 | 73.52921 | 16 ft | 1 kts | 358° |
| 2026-04-23 16:21 | 4.20945 | 73.52927 | 16 ft | 5 kts | 16° |
| 2026-04-23 16:21 | 4.20995 | 73.52941 | 16 ft | 9 kts | 14° |
| 2026-04-23 16:21 | 4.21067 | 73.52960 | 16 ft | 12 kts | 15° |
| 2026-04-23 16:21 | 4.21161 | 73.52986 | 16 ft | 16 kts | 16° |
| 2026-04-23 16:22 | 4.21237 | 73.53035 | 15 ft | 14 kts | 70° |
| 2026-04-23 16:22 | 4.21193 | 73.53100 | 15 ft | 13 kts | 179° |
| 2026-04-23 16:22 | 4.21096 | 73.53102 | 16 ft | 15 kts | 180° |
| 2026-04-23 16:22 | 4.20992 | 73.53101 | 18 ft | 16 kts | 180° |
| 2026-04-23 16:23 | 4.20879 | 73.53100 | 18 ft | 17 kts | 180° |
| 2026-04-23 16:23 | 4.20752 | 73.53101 | 18 ft | 19 kts | 180° |
| 2026-04-23 16:23 | 4.20610 | 73.53101 | 19 ft | 21 kts | 180° |
| 2026-04-23 16:23 | 4.20456 | 73.53102 | 17 ft | 23 kts | 180° |
| 2026-04-23 16:24 | 4.20291 | 73.53101 | 15 ft | 24 kts | 180° |
| 2026-04-23 16:24 | 4.20141 | 73.53102 | 13 ft | 20 kts | 180° |
| 2026-04-23 16:24 | 4.19997 | 73.53102 | 15 ft | 21 kts | 180° |
| 2026-04-23 16:24 | 4.19843 | 73.53101 | 14 ft | 23 kts | 180° |
| 2026-04-23 16:25 | 4.19688 | 73.53102 | 13 ft | 21 kts | 179° |
| 2026-04-23 16:25 | 4.19537 | 73.53103 | 15 ft | 22 kts | 180° |
| 2026-04-23 16:25 | 4.19385 | 73.53102 | 17 ft | 22 kts | 180° |
| 2026-04-23 16:25 | 4.19224 | 73.53102 | 17 ft | 24 kts | 180° |
| 2026-04-23 16:26 | 4.19127 | 73.53102 | 17 ft | 11 kts | 180° |
| 2026-04-23 16:26 | 4.19050 | 73.53101 | 18 ft | 10 kts | 185° |
| 2026-04-23 16:26 | 4.19014 | 73.53065 | 19 ft | 8 kts | 255° |
| 2026-04-23 16:26 | 4.19010 | 73.53002 | 18 ft | 11 kts | 269° |
| 2026-04-23 16:27 | 4.19004 | 73.52945 | 17 ft | 9 kts | 247° |
| 2026-04-23 16:27 | 4.18948 | 73.52920 | 16 ft | 5 kts | 182° |
| 2026-04-23 16:27 | 4.18924 | 73.52919 | 16 ft | 0 kts | 181° |
| 2026-04-23 16:27 | 4.18923 | 73.52919 | 16 ft | 1 kts | 181° |
| 2026-04-23 16:28 | 4.18905 | 73.52919 | 16 ft | 4 kts | 180° |
| 2026-04-23 16:28 | 4.18865 | 73.52920 | 16 ft | 7 kts | 177° |
| 2026-04-23 16:28 | 4.18805 | 73.52922 | 16 ft | 10 kts | 178° |
| 2026-04-23 16:28 | 4.18733 | 73.52923 | 16 ft | 10 kts | 180° |
| 2026-04-23 16:29 | 4.18726 | 73.52923 | 16 ft | 2 kts | 179° |
| 2026-04-23 16:29 | 4.18701 | 73.52923 | 17 ft | 5 kts | 179° |
| 2026-04-23 16:29 | 4.18653 | 73.52924 | 16 ft | 8 kts | 179° |
| 2026-04-23 16:29 | 4.18611 | 73.52889 | 16 ft | 10 kts | 260° |
| 2026-04-23 16:30 | 4.18610 | 73.52869 | 16 ft | 0 kts | 269° |
| 2026-04-23 16:30 | 4.18610 | 73.52857 | 16 ft | 4 kts | 269° |
| 2026-04-23 16:30 | 4.18609 | 73.52820 | 16 ft | 7 kts | 269° |
| 2026-04-23 16:31 | 4.18609 | 73.52785 | 16 ft | 3 kts | 270° |
| 2026-04-23 16:31 | 4.18610 | 73.52762 | 16 ft | 1 kts | 269° |
| 2026-04-23 16:31 | 4.18609 | 73.52757 | 16 ft | 0 kts | 268° |
| 2026-04-23 16:32 | 4.18610 | 73.52765 | 16 ft | 0 kts | 266° |
| 2026-04-23 16:32 | 4.18609 | 73.52761 | 16 ft | 0 kts | 268° |
| 2026-04-23 16:32 | 4.18609 | 73.52760 | 16 ft | 0 kts | 268° |